sensor_id;sensor_type;location;lat;lon;timestamp;P1;durP1;ratioP1;P2;durP2;ratioP2
11771;SDS011;12556;55.748;13.194;2023-04-19T00:01:28;2.00;;;1.00;;
11771;SDS011;12556;55.748;13.194;2023-04-19T00:03:56;0.80;;;0.80;;
11771;SDS011;12556;55.748;13.194;2023-04-19T00:06:23;1.67;;;1.03;;
11771;SDS011;12556;55.748;13.194;2023-04-19T00:08:54;0.80;;;0.80;;
11771;SDS011;12556;55.748;13.194;2023-04-19T00:11:21;1.00;;;0.90;;
11771;SDS011;12556;55.748;13.194;2023-04-19T00:13:48;1.10;;;1.00;;
11771;SDS011;12556;55.748;13.194;2023-04-19T00:16:15;1.00;;;1.00;;
11771;SDS011;12556;55.748;13.194;2023-04-19T00:18:42;1.10;;;0.93;;
11771;SDS011;12556;55.748;13.194;2023-04-19T00:21:10;1.13;;;1.13;;
11771;SDS011;12556;55.748;13.194;2023-04-19T00:23:37;2.53;;;1.10;;
11771;SDS011;12556;55.748;13.194;2023-04-19T00:26:04;1.20;;;1.10;;
11771;SDS011;12556;55.748;13.194;2023-04-19T00:28:32;1.07;;;1.03;;
11771;SDS011;12556;55.748;13.194;2023-04-19T00:30:59;1.13;;;1.03;;
11771;SDS011;12556;55.748;13.194;2023-04-19T00:33:26;1.30;;;1.00;;
11771;SDS011;12556;55.748;13.194;2023-04-19T00:35:53;0.80;;;0.80;;
11771;SDS011;12556;55.748;13.194;2023-04-19T00:38:21;1.03;;;0.93;;
11771;SDS011;12556;55.748;13.194;2023-04-19T00:40:48;1.10;;;1.00;;
11771;SDS011;12556;55.748;13.194;2023-04-19T00:43:16;1.17;;;1.17;;
11771;SDS011;12556;55.748;13.194;2023-04-19T00:45:43;0.90;;;0.90;;
11771;SDS011;12556;55.748;13.194;2023-04-19T00:48:11;0.80;;;0.80;;
11771;SDS011;12556;55.748;13.194;2023-04-19T00:50:39;2.27;;;1.00;;
11771;SDS011;12556;55.748;13.194;2023-04-19T00:53:07;2.23;;;1.10;;
11771;SDS011;12556;55.748;13.194;2023-04-19T00:55:35;1.00;;;1.00;;
11771;SDS011;12556;55.748;13.194;2023-04-19T00:58:03;0.80;;;0.80;;
11771;SDS011;12556;55.748;13.194;2023-04-19T01:00:31;1.00;;;1.00;;
11771;SDS011;12556;55.748;13.194;2023-04-19T01:02:58;1.10;;;1.10;;
11771;SDS011;12556;55.748;13.194;2023-04-19T01:05:25;2.47;;;1.20;;
11771;SDS011;12556;55.748;13.194;2023-04-19T01:07:52;0.80;;;0.80;;
11771;SDS011;12556;55.748;13.194;2023-04-19T01:10:19;1.37;;;1.10;;
11771;SDS011;12556;55.748;13.194;2023-04-19T01:12:47;1.77;;;1.20;;
11771;SDS011;12556;55.748;13.194;2023-04-19T01:15:14;1.03;;;1.00;;
11771;SDS011;12556;55.748;13.194;2023-04-19T01:17:40;1.70;;;1.50;;
11771;SDS011;12556;55.748;13.194;2023-04-19T01:20:08;1.30;;;1.13;;
11771;SDS011;12556;55.748;13.194;2023-04-19T01:22:37;1.00;;;1.00;;
11771;SDS011;12556;55.748;13.194;2023-04-19T01:25:04;1.00;;;1.00;;
11771;SDS011;12556;55.748;13.194;2023-04-19T01:27:32;2.10;;;0.90;;
11771;SDS011;12556;55.748;13.194;2023-04-19T01:29:59;1.10;;;1.00;;
11771;SDS011;12556;55.748;13.194;2023-04-19T01:32:26;0.87;;;0.87;;
11771;SDS011;12556;55.748;13.194;2023-04-19T01:34:53;2.93;;;0.80;;
11771;SDS011;12556;55.748;13.194;2023-04-19T01:37:20;1.20;;;1.10;;
11771;SDS011;12556;55.748;13.194;2023-04-19T01:39:48;0.77;;;0.77;;
11771;SDS011;12556;55.748;13.194;2023-04-19T01:42:15;1.00;;;1.00;;
11771;SDS011;12556;55.748;13.194;2023-04-19T01:44:42;0.90;;;0.90;;
11771;SDS011;12556;55.748;13.194;2023-04-19T01:47:08;1.90;;;1.00;;
11771;SDS011;12556;55.748;13.194;2023-04-19T01:49:36;0.73;;;0.70;;
11771;SDS011;12556;55.748;13.194;2023-04-19T01:52:02;1.60;;;1.10;;
11771;SDS011;12556;55.748;13.194;2023-04-19T01:54:30;0.83;;;0.83;;
11771;SDS011;12556;55.748;13.194;2023-04-19T01:56:58;3.50;;;1.03;;
11771;SDS011;12556;55.748;13.194;2023-04-19T01:59:25;1.43;;;0.80;;
11771;SDS011;12556;55.748;13.194;2023-04-19T02:01:52;1.73;;;0.80;;
11771;SDS011;12556;55.748;13.194;2023-04-19T02:04:19;1.73;;;1.03;;
11771;SDS011;12556;55.748;13.194;2023-04-19T02:06:46;1.43;;;0.80;;
11771;SDS011;12556;55.748;13.194;2023-04-19T02:09:13;2.23;;;0.83;;
11771;SDS011;12556;55.748;13.194;2023-04-19T02:11:40;1.13;;;0.77;;
11771;SDS011;12556;55.748;13.194;2023-04-19T02:14:08;1.67;;;0.97;;
11771;SDS011;12556;55.748;13.194;2023-04-19T02:16:35;2.23;;;0.90;;
11771;SDS011;12556;55.748;13.194;2023-04-19T02:19:02;0.77;;;0.77;;
11771;SDS011;12556;55.748;13.194;2023-04-19T02:21:29;1.30;;;0.83;;
11771;SDS011;12556;55.748;13.194;2023-04-19T02:23:56;2.57;;;0.90;;
11771;SDS011;12556;55.748;13.194;2023-04-19T02:26:23;0.97;;;0.97;;
11771;SDS011;12556;55.748;13.194;2023-04-19T02:28:50;1.63;;;0.90;;
11771;SDS011;12556;55.748;13.194;2023-04-19T02:31:18;1.27;;;0.80;;
11771;SDS011;12556;55.748;13.194;2023-04-19T02:33:45;0.73;;;0.73;;
11771;SDS011;12556;55.748;13.194;2023-04-19T02:36:12;1.00;;;0.87;;
11771;SDS011;12556;55.748;13.194;2023-04-19T02:38:39;0.70;;;0.70;;
11771;SDS011;12556;55.748;13.194;2023-04-19T02:41:06;0.70;;;0.70;;
11771;SDS011;12556;55.748;13.194;2023-04-19T02:43:33;0.83;;;0.77;;
11771;SDS011;12556;55.748;13.194;2023-04-19T02:46:00;0.87;;;0.87;;
11771;SDS011;12556;55.748;13.194;2023-04-19T02:48:28;1.47;;;0.80;;
11771;SDS011;12556;55.748;13.194;2023-04-19T02:50:55;0.80;;;0.80;;
11771;SDS011;12556;55.748;13.194;2023-04-19T02:53:22;0.97;;;0.97;;
11771;SDS011;12556;55.748;13.194;2023-04-19T02:55:49;0.97;;;0.80;;
11771;SDS011;12556;55.748;13.194;2023-04-19T02:58:16;1.60;;;0.97;;
11771;SDS011;12556;55.748;13.194;2023-04-19T03:00:42;1.27;;;0.93;;
11771;SDS011;12556;55.748;13.194;2023-04-19T03:03:09;1.07;;;0.97;;
11771;SDS011;12556;55.748;13.194;2023-04-19T03:05:37;1.33;;;1.00;;
11771;SDS011;12556;55.748;13.194;2023-04-19T03:08:04;1.50;;;1.00;;
11771;SDS011;12556;55.748;13.194;2023-04-19T03:10:31;2.77;;;1.20;;
11771;SDS011;12556;55.748;13.194;2023-04-19T03:12:58;0.80;;;0.80;;
11771;SDS011;12556;55.748;13.194;2023-04-19T03:15:25;0.97;;;0.93;;
11771;SDS011;12556;55.748;13.194;2023-04-19T03:17:52;0.87;;;0.87;;
11771;SDS011;12556;55.748;13.194;2023-04-19T03:20:18;1.10;;;0.70;;
11771;SDS011;12556;55.748;13.194;2023-04-19T03:22:47;0.87;;;0.83;;
11771;SDS011;12556;55.748;13.194;2023-04-19T03:25:14;1.17;;;0.90;;
11771;SDS011;12556;55.748;13.194;2023-04-19T03:27:41;0.80;;;0.80;;
11771;SDS011;12556;55.748;13.194;2023-04-19T03:30:12;0.77;;;0.70;;
11771;SDS011;12556;55.748;13.194;2023-04-19T03:32:39;1.13;;;0.70;;
11771;SDS011;12556;55.748;13.194;2023-04-19T03:35:06;0.83;;;0.83;;
11771;SDS011;12556;55.748;13.194;2023-04-19T03:37:33;0.83;;;0.83;;
11771;SDS011;12556;55.748;13.194;2023-04-19T03:40:01;1.00;;;1.00;;
11771;SDS011;12556;55.748;13.194;2023-04-19T03:42:28;3.80;;;1.10;;
11771;SDS011;12556;55.748;13.194;2023-04-19T03:44:55;1.10;;;1.00;;
11771;SDS011;12556;55.748;13.194;2023-04-19T03:47:22;1.17;;;1.07;;
11771;SDS011;12556;55.748;13.194;2023-04-19T03:49:49;0.80;;;0.80;;
11771;SDS011;12556;55.748;13.194;2023-04-19T03:52:16;1.00;;;1.00;;
11771;SDS011;12556;55.748;13.194;2023-04-19T03:54:43;0.83;;;0.83;;
11771;SDS011;12556;55.748;13.194;2023-04-19T03:57:12;1.10;;;0.90;;
11771;SDS011;12556;55.748;13.194;2023-04-19T03:59:41;1.13;;;1.10;;
11771;SDS011;12556;55.748;13.194;2023-04-19T04:02:08;1.73;;;0.80;;
11771;SDS011;12556;55.748;13.194;2023-04-19T04:04:35;9.87;;;1.13;;
11771;SDS011;12556;55.748;13.194;2023-04-19T04:07:02;1.23;;;0.90;;
11771;SDS011;12556;55.748;13.194;2023-04-19T04:09:28;1.53;;;1.10;;
11771;SDS011;12556;55.748;13.194;2023-04-19T04:11:56;1.20;;;1.10;;
11771;SDS011;12556;55.748;13.194;2023-04-19T04:14:24;1.00;;;1.00;;
11771;SDS011;12556;55.748;13.194;2023-04-19T04:16:51;1.43;;;1.27;;
11771;SDS011;12556;55.748;13.194;2023-04-19T04:19:18;1.47;;;0.90;;
11771;SDS011;12556;55.748;13.194;2023-04-19T04:21:46;1.60;;;0.90;;
11771;SDS011;12556;55.748;13.194;2023-04-19T04:24:13;1.27;;;1.00;;
11771;SDS011;12556;55.748;13.194;2023-04-19T04:26:40;0.90;;;0.90;;
11771;SDS011;12556;55.748;13.194;2023-04-19T04:29:07;1.10;;;1.00;;
11771;SDS011;12556;55.748;13.194;2023-04-19T04:31:35;1.30;;;1.20;;
11771;SDS011;12556;55.748;13.194;2023-04-19T04:34:02;1.50;;;1.10;;
11771;SDS011;12556;55.748;13.194;2023-04-19T04:36:29;3.33;;;1.30;;
11771;SDS011;12556;55.748;13.194;2023-04-19T04:38:55;1.67;;;1.10;;
11771;SDS011;12556;55.748;13.194;2023-04-19T04:41:22;4.13;;;1.10;;
11771;SDS011;12556;55.748;13.194;2023-04-19T04:43:49;0.93;;;0.93;;
11771;SDS011;12556;55.748;13.194;2023-04-19T04:46:17;1.80;;;1.30;;
11771;SDS011;12556;55.748;13.194;2023-04-19T04:48:46;4.10;;;1.03;;
11771;SDS011;12556;55.748;13.194;2023-04-19T04:51:13;0.87;;;0.87;;
11771;SDS011;12556;55.748;13.194;2023-04-19T04:53:40;1.10;;;1.00;;
11771;SDS011;12556;55.748;13.194;2023-04-19T04:56:06;0.90;;;0.90;;
11771;SDS011;12556;55.748;13.194;2023-04-19T04:58:34;2.50;;;1.10;;
11771;SDS011;12556;55.748;13.194;2023-04-19T05:01:01;1.47;;;1.20;;
11771;SDS011;12556;55.748;13.194;2023-04-19T05:03:28;4.77;;;1.27;;
11771;SDS011;12556;55.748;13.194;2023-04-19T05:05:56;1.23;;;0.83;;
11771;SDS011;12556;55.748;13.194;2023-04-19T05:08:23;2.77;;;1.40;;
11771;SDS011;12556;55.748;13.194;2023-04-19T05:10:50;1.37;;;1.10;;
11771;SDS011;12556;55.748;13.194;2023-04-19T05:13:17;1.20;;;1.10;;
11771;SDS011;12556;55.748;13.194;2023-04-19T05:15:44;2.57;;;1.30;;
11771;SDS011;12556;55.748;13.194;2023-04-19T05:18:11;2.30;;;1.13;;
11771;SDS011;12556;55.748;13.194;2023-04-19T05:20:38;1.57;;;1.30;;
11771;SDS011;12556;55.748;13.194;2023-04-19T05:23:06;1.63;;;1.20;;
11771;SDS011;12556;55.748;13.194;2023-04-19T05:25:35;4.63;;;1.07;;
11771;SDS011;12556;55.748;13.194;2023-04-19T05:28:02;1.27;;;0.90;;
11771;SDS011;12556;55.748;13.194;2023-04-19T05:30:29;2.37;;;0.80;;
11771;SDS011;12556;55.748;13.194;2023-04-19T05:32:56;1.20;;;0.90;;
11771;SDS011;12556;55.748;13.194;2023-04-19T05:35:23;1.13;;;1.00;;
11771;SDS011;12556;55.748;13.194;2023-04-19T05:37:50;4.37;;;1.13;;
11771;SDS011;12556;55.748;13.194;2023-04-19T05:40:19;2.63;;;1.13;;
11771;SDS011;12556;55.748;13.194;2023-04-19T05:42:47;1.97;;;0.90;;
11771;SDS011;12556;55.748;13.194;2023-04-19T05:45:14;1.17;;;0.67;;
11771;SDS011;12556;55.748;13.194;2023-04-19T05:47:42;2.23;;;1.13;;
11771;SDS011;12556;55.748;13.194;2023-04-19T05:50:09;2.53;;;1.10;;
11771;SDS011;12556;55.748;13.194;2023-04-19T05:52:36;1.13;;;1.03;;
11771;SDS011;12556;55.748;13.194;2023-04-19T05:55:03;3.10;;;0.90;;
11771;SDS011;12556;55.748;13.194;2023-04-19T05:57:32;1.27;;;1.00;;
11771;SDS011;12556;55.748;13.194;2023-04-19T05:59:59;1.23;;;0.90;;
11771;SDS011;12556;55.748;13.194;2023-04-19T06:02:26;2.60;;;1.00;;
11771;SDS011;12556;55.748;13.194;2023-04-19T06:04:52;2.53;;;1.07;;
11771;SDS011;12556;55.748;13.194;2023-04-19T06:07:21;1.63;;;1.00;;
11771;SDS011;12556;55.748;13.194;2023-04-19T06:09:48;1.60;;;0.90;;
11771;SDS011;12556;55.748;13.194;2023-04-19T06:12:15;3.27;;;1.27;;
11771;SDS011;12556;55.748;13.194;2023-04-19T06:14:43;1.83;;;1.00;;
11771;SDS011;12556;55.748;13.194;2023-04-19T06:17:10;3.57;;;1.47;;
11771;SDS011;12556;55.748;13.194;2023-04-19T06:19:38;4.30;;;0.80;;
11771;SDS011;12556;55.748;13.194;2023-04-19T06:22:05;2.47;;;1.10;;
11771;SDS011;12556;55.748;13.194;2023-04-19T06:24:32;3.87;;;1.20;;
11771;SDS011;12556;55.748;13.194;2023-04-19T06:26:59;4.13;;;1.10;;
11771;SDS011;12556;55.748;13.194;2023-04-19T06:29:26;1.57;;;1.00;;
11771;SDS011;12556;55.748;13.194;2023-04-19T06:31:54;1.77;;;0.80;;
11771;SDS011;12556;55.748;13.194;2023-04-19T06:34:21;1.23;;;1.13;;
11771;SDS011;12556;55.748;13.194;2023-04-19T06:36:48;1.70;;;0.90;;
11771;SDS011;12556;55.748;13.194;2023-04-19T06:39:15;2.80;;;1.13;;
11771;SDS011;12556;55.748;13.194;2023-04-19T06:41:42;3.50;;;1.00;;
11771;SDS011;12556;55.748;13.194;2023-04-19T06:44:09;2.57;;;1.00;;
11771;SDS011;12556;55.748;13.194;2023-04-19T06:46:37;0.80;;;0.80;;
11771;SDS011;12556;55.748;13.194;2023-04-19T06:49:06;1.73;;;0.90;;
11771;SDS011;12556;55.748;13.194;2023-04-19T06:51:33;1.30;;;1.00;;
11771;SDS011;12556;55.748;13.194;2023-04-19T06:54:00;1.20;;;1.10;;
11771;SDS011;12556;55.748;13.194;2023-04-19T06:56:39;2.83;;;1.23;;
11771;SDS011;12556;55.748;13.194;2023-04-19T06:59:09;2.20;;;1.47;;
11771;SDS011;12556;55.748;13.194;2023-04-19T07:01:37;1.37;;;1.20;;
11771;SDS011;12556;55.748;13.194;2023-04-19T07:04:06;1.23;;;1.10;;
11771;SDS011;12556;55.748;13.194;2023-04-19T07:06:33;2.03;;;1.13;;
11771;SDS011;12556;55.748;13.194;2023-04-19T07:09:00;4.23;;;1.00;;
11771;SDS011;12556;55.748;13.194;2023-04-19T07:11:28;2.97;;;1.20;;
11771;SDS011;12556;55.748;13.194;2023-04-19T07:13:55;2.40;;;1.10;;
11771;SDS011;12556;55.748;13.194;2023-04-19T07:16:22;2.63;;;1.30;;
11771;SDS011;12556;55.748;13.194;2023-04-19T07:18:49;1.07;;;1.03;;
11771;SDS011;12556;55.748;13.194;2023-04-19T07:21:17;1.63;;;1.53;;
11771;SDS011;12556;55.748;13.194;2023-04-19T07:23:44;2.50;;;1.20;;
11771;SDS011;12556;55.748;13.194;2023-04-19T07:26:11;2.40;;;1.23;;
11771;SDS011;12556;55.748;13.194;2023-04-19T07:28:39;2.00;;;1.00;;
11771;SDS011;12556;55.748;13.194;2023-04-19T07:31:06;4.13;;;1.30;;
11771;SDS011;12556;55.748;13.194;2023-04-19T07:33:32;1.67;;;1.00;;
11771;SDS011;12556;55.748;13.194;2023-04-19T07:35:59;1.43;;;1.20;;
11771;SDS011;12556;55.748;13.194;2023-04-19T07:38:28;3.17;;;1.30;;
11771;SDS011;12556;55.748;13.194;2023-04-19T07:40:55;2.10;;;1.20;;
11771;SDS011;12556;55.748;13.194;2023-04-19T07:43:22;1.53;;;1.20;;
11771;SDS011;12556;55.748;13.194;2023-04-19T07:45:48;2.27;;;1.13;;
11771;SDS011;12556;55.748;13.194;2023-04-19T07:48:15;4.20;;;1.40;;
11771;SDS011;12556;55.748;13.194;2023-04-19T07:50:42;2.23;;;1.50;;
11771;SDS011;12556;55.748;13.194;2023-04-19T07:53:09;1.90;;;1.33;;
11771;SDS011;12556;55.748;13.194;2023-04-19T07:55:37;3.47;;;1.40;;
11771;SDS011;12556;55.748;13.194;2023-04-19T07:58:04;2.23;;;1.30;;
11771;SDS011;12556;55.748;13.194;2023-04-19T08:00:31;2.00;;;1.10;;
11771;SDS011;12556;55.748;13.194;2023-04-19T08:02:58;4.83;;;1.63;;
11771;SDS011;12556;55.748;13.194;2023-04-19T08:05:25;3.07;;;1.63;;
11771;SDS011;12556;55.748;13.194;2023-04-19T08:07:52;2.70;;;1.40;;
11771;SDS011;12556;55.748;13.194;2023-04-19T08:10:19;11.40;;;2.23;;
11771;SDS011;12556;55.748;13.194;2023-04-19T08:12:47;2.67;;;1.40;;
11771;SDS011;12556;55.748;13.194;2023-04-19T08:15:15;2.20;;;1.40;;
11771;SDS011;12556;55.748;13.194;2023-04-19T08:17:42;2.80;;;1.47;;
11771;SDS011;12556;55.748;13.194;2023-04-19T08:20:09;2.53;;;1.57;;
11771;SDS011;12556;55.748;13.194;2023-04-19T08:22:37;4.93;;;1.30;;
11771;SDS011;12556;55.748;13.194;2023-04-19T08:25:05;2.50;;;1.40;;
11771;SDS011;12556;55.748;13.194;2023-04-19T08:27:34;2.77;;;1.50;;
11771;SDS011;12556;55.748;13.194;2023-04-19T08:30:03;2.17;;;1.50;;
11771;SDS011;12556;55.748;13.194;2023-04-19T08:32:31;2.63;;;1.50;;
11771;SDS011;12556;55.748;13.194;2023-04-19T08:34:58;1.83;;;1.27;;
11771;SDS011;12556;55.748;13.194;2023-04-19T08:37:26;7.10;;;1.90;;
11771;SDS011;12556;55.748;13.194;2023-04-19T08:39:52;3.67;;;1.53;;
11771;SDS011;12556;55.748;13.194;2023-04-19T08:42:19;4.07;;;1.43;;
11771;SDS011;12556;55.748;13.194;2023-04-19T08:44:46;4.23;;;1.47;;
11771;SDS011;12556;55.748;13.194;2023-04-19T08:47:15;5.63;;;1.83;;
11771;SDS011;12556;55.748;13.194;2023-04-19T08:49:42;2.03;;;1.50;;
11771;SDS011;12556;55.748;13.194;2023-04-19T08:52:11;4.50;;;1.63;;
11771;SDS011;12556;55.748;13.194;2023-04-19T08:54:40;2.90;;;1.50;;
11771;SDS011;12556;55.748;13.194;2023-04-19T08:57:07;5.47;;;1.60;;
11771;SDS011;12556;55.748;13.194;2023-04-19T08:59:36;3.53;;;1.70;;
11771;SDS011;12556;55.748;13.194;2023-04-19T09:02:04;1.70;;;1.57;;
11771;SDS011;12556;55.748;13.194;2023-04-19T09:04:32;2.50;;;1.70;;
11771;SDS011;12556;55.748;13.194;2023-04-19T09:06:59;1.77;;;1.60;;
11771;SDS011;12556;55.748;13.194;2023-04-19T09:09:26;2.00;;;1.63;;
11771;SDS011;12556;55.748;13.194;2023-04-19T09:11:55;3.17;;;1.87;;
11771;SDS011;12556;55.748;13.194;2023-04-19T09:14:24;2.17;;;1.57;;
11771;SDS011;12556;55.748;13.194;2023-04-19T09:16:52;2.47;;;1.53;;
11771;SDS011;12556;55.748;13.194;2023-04-19T09:19:19;2.00;;;1.30;;
11771;SDS011;12556;55.748;13.194;2023-04-19T09:21:47;1.57;;;1.47;;
11771;SDS011;12556;55.748;13.194;2023-04-19T09:24:15;1.53;;;1.43;;
11771;SDS011;12556;55.748;13.194;2023-04-19T09:26:44;1.87;;;1.47;;
11771;SDS011;12556;55.748;13.194;2023-04-19T09:29:21;1.57;;;1.47;;
11771;SDS011;12556;55.748;13.194;2023-04-19T09:31:55;4.50;;;1.70;;
11771;SDS011;12556;55.748;13.194;2023-04-19T09:34:23;2.13;;;1.73;;
11771;SDS011;12556;55.748;13.194;2023-04-19T09:36:53;1.97;;;1.53;;
11771;SDS011;12556;55.748;13.194;2023-04-19T09:39:27;3.43;;;1.30;;
11771;SDS011;12556;55.748;13.194;2023-04-19T09:41:55;2.40;;;1.40;;
11771;SDS011;12556;55.748;13.194;2023-04-19T09:44:23;2.13;;;1.60;;
11771;SDS011;12556;55.748;13.194;2023-04-19T09:46:50;2.07;;;1.53;;
11771;SDS011;12556;55.748;13.194;2023-04-19T09:49:18;1.47;;;1.37;;
11771;SDS011;12556;55.748;13.194;2023-04-19T09:51:48;2.23;;;1.80;;
11771;SDS011;12556;55.748;13.194;2023-04-19T09:54:18;2.10;;;1.20;;
11771;SDS011;12556;55.748;13.194;2023-04-19T09:56:49;2.30;;;1.50;;
11771;SDS011;12556;55.748;13.194;2023-04-19T09:59:17;2.83;;;1.20;;
11771;SDS011;12556;55.748;13.194;2023-04-19T10:01:45;2.43;;;1.50;;
11771;SDS011;12556;55.748;13.194;2023-04-19T10:04:13;4.73;;;1.50;;
11771;SDS011;12556;55.748;13.194;2023-04-19T10:06:46;2.30;;;1.40;;
11771;SDS011;12556;55.748;13.194;2023-04-19T10:09:14;1.40;;;1.30;;
11771;SDS011;12556;55.748;13.194;2023-04-19T10:11:46;2.42;;;1.50;;
11771;SDS011;12556;55.748;13.194;2023-04-19T10:14:14;1.70;;;1.50;;
11771;SDS011;12556;55.748;13.194;2023-04-19T10:16:42;4.50;;;1.40;;
11771;SDS011;12556;55.748;13.194;2023-04-19T10:19:10;1.90;;;1.57;;
11771;SDS011;12556;55.748;13.194;2023-04-19T10:21:38;2.50;;;1.67;;
11771;SDS011;12556;55.748;13.194;2023-04-19T10:24:07;1.43;;;1.33;;
11771;SDS011;12556;55.748;13.194;2023-04-19T10:32:22;2.58;;;1.40;;
11771;SDS011;12556;55.748;13.194;2023-04-19T10:34:51;4.05;;;1.65;;
11771;SDS011;12556;55.748;13.194;2023-04-19T10:37:20;7.05;;;1.73;;
11771;SDS011;12556;55.748;13.194;2023-04-19T10:39:48;2.83;;;1.33;;
11771;SDS011;12556;55.748;13.194;2023-04-19T10:42:17;1.90;;;1.48;;
11771;SDS011;12556;55.748;13.194;2023-04-19T10:47:56;2.25;;;1.50;;
11771;SDS011;12556;55.748;13.194;2023-04-19T10:50:23;1.80;;;1.15;;
11771;SDS011;12556;55.748;13.194;2023-04-19T10:52:50;1.63;;;1.52;;
11771;SDS011;12556;55.748;13.194;2023-04-19T10:55:17;1.85;;;1.40;;
11771;SDS011;12556;55.748;13.194;2023-04-19T10:58:02;4.85;;;1.70;;
11771;SDS011;12556;55.748;13.194;2023-04-19T11:00:30;4.53;;;2.00;;
11771;SDS011;12556;55.748;13.194;2023-04-19T11:03:00;3.20;;;1.60;;
11771;SDS011;12556;55.748;13.194;2023-04-19T11:06:15;1.25;;;1.15;;
11771;SDS011;12556;55.748;13.194;2023-04-19T11:08:44;2.25;;;1.70;;
11771;SDS011;12556;55.748;13.194;2023-04-19T11:11:11;7.28;;;1.88;;
11771;SDS011;12556;55.748;13.194;2023-04-19T11:13:41;5.85;;;1.52;;
11771;SDS011;12556;55.748;13.194;2023-04-19T11:16:08;1.73;;;1.63;;
11771;SDS011;12556;55.748;13.194;2023-04-19T11:18:35;4.82;;;1.48;;
11771;SDS011;12556;55.748;13.194;2023-04-19T11:21:03;6.97;;;2.03;;
11771;SDS011;12556;55.748;13.194;2023-04-19T11:23:30;4.85;;;1.65;;
11771;SDS011;12556;55.748;13.194;2023-04-19T11:25:57;1.48;;;1.33;;
11771;SDS011;12556;55.748;13.194;2023-04-19T11:28:24;3.60;;;1.50;;
11771;SDS011;12556;55.748;13.194;2023-04-19T11:30:52;1.67;;;1.30;;
11771;SDS011;12556;55.748;13.194;2023-04-19T11:33:20;6.10;;;1.90;;
11771;SDS011;12556;55.748;13.194;2023-04-19T11:35:49;2.65;;;1.77;;
11771;SDS011;12556;55.748;13.194;2023-04-19T11:38:16;3.42;;;1.52;;
11771;SDS011;12556;55.748;13.194;2023-04-19T11:40:43;3.30;;;1.40;;
11771;SDS011;12556;55.748;13.194;2023-04-19T11:43:10;1.95;;;1.52;;
11771;SDS011;12556;55.748;13.194;2023-04-19T11:45:37;2.05;;;1.50;;
11771;SDS011;12556;55.748;13.194;2023-04-19T11:48:06;3.08;;;1.48;;
11771;SDS011;12556;55.748;13.194;2023-04-19T11:50:38;2.53;;;1.60;;
11771;SDS011;12556;55.748;13.194;2023-04-19T11:53:10;1.95;;;1.48;;
11771;SDS011;12556;55.748;13.194;2023-04-19T11:55:40;2.10;;;1.42;;
11771;SDS011;12556;55.748;13.194;2023-04-19T11:58:08;2.92;;;1.30;;
11771;SDS011;12556;55.748;13.194;2023-04-19T12:00:47;1.75;;;1.45;;
11771;SDS011;12556;55.748;13.194;2023-04-19T12:03:16;3.28;;;1.77;;
11771;SDS011;12556;55.748;13.194;2023-04-19T12:05:51;2.45;;;1.42;;
11771;SDS011;12556;55.748;13.194;2023-04-19T12:08:28;1.80;;;1.30;;
11771;SDS011;12556;55.748;13.194;2023-04-19T12:10:56;1.42;;;1.25;;
11771;SDS011;12556;55.748;13.194;2023-04-19T12:13:24;3.03;;;1.50;;
11771;SDS011;12556;55.748;13.194;2023-04-19T12:15:51;1.40;;;1.30;;
11771;SDS011;12556;55.748;13.194;2023-04-19T12:18:19;2.15;;;1.52;;
11771;SDS011;12556;55.748;13.194;2023-04-19T12:20:47;8.50;;;1.55;;
11771;SDS011;12556;55.748;13.194;2023-04-19T12:23:14;3.78;;;1.40;;
11771;SDS011;12556;55.748;13.194;2023-04-19T12:25:44;2.55;;;1.50;;
11771;SDS011;12556;55.748;13.194;2023-04-19T12:28:12;1.80;;;1.20;;
11771;SDS011;12556;55.748;13.194;2023-04-19T12:30:40;2.17;;;1.58;;
11771;SDS011;12556;55.748;13.194;2023-04-19T12:33:08;2.22;;;1.30;;
11771;SDS011;12556;55.748;13.194;2023-04-19T12:35:36;1.40;;;1.10;;
11771;SDS011;12556;55.748;13.194;2023-04-19T12:38:03;7.45;;;1.75;;
11771;SDS011;12556;55.748;13.194;2023-04-19T12:40:30;3.00;;;1.30;;
11771;SDS011;12556;55.748;13.194;2023-04-19T12:42:58;5.43;;;1.55;;
11771;SDS011;12556;55.748;13.194;2023-04-19T12:45:24;3.28;;;1.40;;
11771;SDS011;12556;55.748;13.194;2023-04-19T12:47:51;2.25;;;1.20;;
11771;SDS011;12556;55.748;13.194;2023-04-19T12:50:18;1.40;;;1.30;;
11771;SDS011;12556;55.748;13.194;2023-04-19T12:52:46;2.47;;;1.00;;
11771;SDS011;12556;55.748;13.194;2023-04-19T12:55:13;3.78;;;1.75;;
11771;SDS011;12556;55.748;13.194;2023-04-19T12:57:40;1.27;;;1.10;;
11771;SDS011;12556;55.748;13.194;2023-04-19T13:00:07;1.13;;;1.00;;
11771;SDS011;12556;55.748;13.194;2023-04-19T13:02:36;2.10;;;1.40;;
11771;SDS011;12556;55.748;13.194;2023-04-19T13:05:03;3.25;;;1.10;;
11771;SDS011;12556;55.748;13.194;2023-04-19T13:07:30;2.50;;;1.15;;
11771;SDS011;12556;55.748;13.194;2023-04-19T13:09:58;1.73;;;1.02;;
11771;SDS011;12556;55.748;13.194;2023-04-19T13:12:25;3.50;;;1.30;;
11771;SDS011;12556;55.748;13.194;2023-04-19T13:14:53;2.92;;;0.93;;
11771;SDS011;12556;55.748;13.194;2023-04-19T13:17:20;1.77;;;1.15;;
11771;SDS011;12556;55.748;13.194;2023-04-19T13:19:47;1.30;;;0.90;;
11771;SDS011;12556;55.748;13.194;2023-04-19T13:22:13;2.70;;;1.25;;
11771;SDS011;12556;55.748;13.194;2023-04-19T13:24:40;6.55;;;1.48;;
11771;SDS011;12556;55.748;13.194;2023-04-19T13:27:09;5.57;;;1.50;;
11771;SDS011;12556;55.748;13.194;2023-04-19T13:29:36;1.55;;;1.30;;
11771;SDS011;12556;55.748;13.194;2023-04-19T13:32:03;2.10;;;1.33;;
11771;SDS011;12556;55.748;13.194;2023-04-19T13:34:31;2.50;;;1.48;;
11771;SDS011;12556;55.748;13.194;2023-04-19T13:36:58;1.98;;;1.23;;
11771;SDS011;12556;55.748;13.194;2023-04-19T13:39:25;4.10;;;1.60;;
11771;SDS011;12556;55.748;13.194;2023-04-19T13:41:52;7.43;;;1.60;;
11771;SDS011;12556;55.748;13.194;2023-04-19T13:44:20;3.38;;;1.45;;
11771;SDS011;12556;55.748;13.194;2023-04-19T13:46:49;3.58;;;1.23;;
11771;SDS011;12556;55.748;13.194;2023-04-19T13:49:16;3.75;;;1.30;;
11771;SDS011;12556;55.748;13.194;2023-04-19T13:51:43;1.40;;;1.30;;
11771;SDS011;12556;55.748;13.194;2023-04-19T13:54:10;2.15;;;1.10;;
11771;SDS011;12556;55.748;13.194;2023-04-19T13:56:37;3.47;;;1.40;;
11771;SDS011;12556;55.748;13.194;2023-04-19T13:59:04;3.03;;;1.63;;
11771;SDS011;12556;55.748;13.194;2023-04-19T14:01:32;3.22;;;1.50;;
11771;SDS011;12556;55.748;13.194;2023-04-19T14:04:01;5.65;;;2.10;;
11771;SDS011;12556;55.748;13.194;2023-04-19T14:06:28;1.63;;;1.30;;
11771;SDS011;12556;55.748;13.194;2023-04-19T14:08:55;1.92;;;1.42;;
11771;SDS011;12556;55.748;13.194;2023-04-19T14:11:22;2.65;;;1.55;;
11771;SDS011;12556;55.748;13.194;2023-04-19T14:13:51;3.67;;;1.42;;
11771;SDS011;12556;55.748;13.194;2023-04-19T14:16:18;1.98;;;1.38;;
11771;SDS011;12556;55.748;13.194;2023-04-19T14:18:49;2.47;;;1.48;;
11771;SDS011;12556;55.748;13.194;2023-04-19T14:21:16;3.80;;;1.30;;
11771;SDS011;12556;55.748;13.194;2023-04-19T14:23:43;2.80;;;1.58;;
11771;SDS011;12556;55.748;13.194;2023-04-19T14:26:10;2.73;;;1.63;;
11771;SDS011;12556;55.748;13.194;2023-04-19T14:28:37;4.60;;;1.50;;
11771;SDS011;12556;55.748;13.194;2023-04-19T14:31:04;1.87;;;1.50;;
11771;SDS011;12556;55.748;13.194;2023-04-19T14:33:31;2.57;;;1.40;;
11771;SDS011;12556;55.748;13.194;2023-04-19T14:35:59;2.83;;;1.60;;
11771;SDS011;12556;55.748;13.194;2023-04-19T14:38:26;3.60;;;1.40;;
11771;SDS011;12556;55.748;13.194;2023-04-19T14:40:53;3.80;;;1.33;;
11771;SDS011;12556;55.748;13.194;2023-04-19T14:43:20;2.90;;;1.50;;
11771;SDS011;12556;55.748;13.194;2023-04-19T14:45:47;3.23;;;1.40;;